sensor_id;sensor_type;location;lat;lon;timestamp;P1;durP1;ratioP1;P2;durP2;ratioP2
9178;SDS011;71287;48.414;11.478;2023-12-28T00:01:42;4.70;;;4.30;;
9178;SDS011;71287;48.414;11.478;2023-12-28T00:04:10;4.90;;;3.60;;
9178;SDS011;71287;48.414;11.478;2023-12-28T00:06:37;5.67;;;3.97;;
9178;SDS011;71287;48.414;11.478;2023-12-28T00:09:04;5.10;;;4.00;;
9178;SDS011;71287;48.414;11.478;2023-12-28T00:11:31;6.07;;;3.83;;
9178;SDS011;71287;48.414;11.478;2023-12-28T00:13:58;4.83;;;3.77;;
9178;SDS011;71287;48.414;11.478;2023-12-28T00:16:24;4.23;;;3.80;;
9178;SDS011;71287;48.414;11.478;2023-12-28T00:18:51;4.37;;;3.63;;
9178;SDS011;71287;48.414;11.478;2023-12-28T00:21:19;5.00;;;3.80;;
9178;SDS011;71287;48.414;11.478;2023-12-28T00:23:46;5.10;;;3.80;;
9178;SDS011;71287;48.414;11.478;2023-12-28T00:26:13;4.60;;;3.87;;
9178;SDS011;71287;48.414;11.478;2023-12-28T00:28:46;6.53;;;4.83;;
9178;SDS011;71287;48.414;11.478;2023-12-28T00:31:13;5.27;;;4.23;;
9178;SDS011;71287;48.414;11.478;2023-12-28T00:33:40;5.50;;;4.10;;
9178;SDS011;71287;48.414;11.478;2023-12-28T00:36:07;5.17;;;3.80;;
9178;SDS011;71287;48.414;11.478;2023-12-28T00:38:35;5.80;;;4.33;;
9178;SDS011;71287;48.414;11.478;2023-12-28T00:41:02;5.57;;;3.93;;
9178;SDS011;71287;48.414;11.478;2023-12-28T00:43:29;5.17;;;3.80;;
9178;SDS011;71287;48.414;11.478;2023-12-28T00:45:56;5.57;;;4.03;;
9178;SDS011;71287;48.414;11.478;2023-12-28T00:48:23;5.40;;;4.40;;
9178;SDS011;71287;48.414;11.478;2023-12-28T00:50:49;7.23;;;3.90;;
9178;SDS011;71287;48.414;11.478;2023-12-28T00:53:16;4.90;;;3.93;;
9178;SDS011;71287;48.414;11.478;2023-12-28T00:55:44;6.20;;;4.53;;
9178;SDS011;71287;48.414;11.478;2023-12-28T00:58:11;5.90;;;4.40;;
9178;SDS011;71287;48.414;11.478;2023-12-28T01:00:38;5.73;;;4.00;;
9178;SDS011;71287;48.414;11.478;2023-12-28T01:03:05;4.77;;;4.27;;
9178;SDS011;71287;48.414;11.478;2023-12-28T01:05:31;4.83;;;3.63;;
9178;SDS011;71287;48.414;11.478;2023-12-28T01:07:59;5.43;;;4.07;;
9178;SDS011;71287;48.414;11.478;2023-12-28T01:10:25;4.73;;;4.23;;
9178;SDS011;71287;48.414;11.478;2023-12-28T01:12:53;4.67;;;3.73;;
9178;SDS011;71287;48.414;11.478;2023-12-28T01:15:20;5.43;;;4.70;;
9178;SDS011;71287;48.414;11.478;2023-12-28T01:17:47;7.60;;;5.10;;
9178;SDS011;71287;48.414;11.478;2023-12-28T01:20:14;5.77;;;4.20;;
9178;SDS011;71287;48.414;11.478;2023-12-28T01:22:41;6.40;;;4.37;;
9178;SDS011;71287;48.414;11.478;2023-12-28T01:25:08;4.13;;;3.73;;
9178;SDS011;71287;48.414;11.478;2023-12-28T01:27:35;7.13;;;3.70;;
9178;SDS011;71287;48.414;11.478;2023-12-28T01:30:03;4.27;;;3.87;;
9178;SDS011;71287;48.414;11.478;2023-12-28T01:32:31;4.97;;;3.53;;
9178;SDS011;71287;48.414;11.478;2023-12-28T01:34:58;4.53;;;3.73;;
9178;SDS011;71287;48.414;11.478;2023-12-28T01:37:24;4.17;;;3.77;;
9178;SDS011;71287;48.414;11.478;2023-12-28T01:39:55;4.20;;;3.80;;
9178;SDS011;71287;48.414;11.478;2023-12-28T01:42:22;5.53;;;4.60;;
9178;SDS011;71287;48.414;11.478;2023-12-28T01:44:49;5.50;;;4.53;;
9178;SDS011;71287;48.414;11.478;2023-12-28T01:47:17;4.83;;;4.27;;
9178;SDS011;71287;48.414;11.478;2023-12-28T01:49:44;5.97;;;4.57;;
9178;SDS011;71287;48.414;11.478;2023-12-28T01:52:12;5.17;;;4.10;;
9178;SDS011;71287;48.414;11.478;2023-12-28T01:54:39;3.93;;;3.63;;
9178;SDS011;71287;48.414;11.478;2023-12-28T01:57:06;5.33;;;3.80;;
9178;SDS011;71287;48.414;11.478;2023-12-28T01:59:33;4.87;;;4.23;;
9178;SDS011;71287;48.414;11.478;2023-12-28T02:02:00;4.73;;;4.27;;
9178;SDS011;71287;48.414;11.478;2023-12-28T02:04:28;5.47;;;4.37;;
9178;SDS011;71287;48.414;11.478;2023-12-28T02:06:56;5.13;;;3.83;;
9178;SDS011;71287;48.414;11.478;2023-12-28T02:09:24;5.27;;;4.03;;
9178;SDS011;71287;48.414;11.478;2023-12-28T02:11:51;5.03;;;4.03;;
9178;SDS011;71287;48.414;11.478;2023-12-28T02:14:18;4.13;;;3.73;;
9178;SDS011;71287;48.414;11.478;2023-12-28T02:16:46;4.70;;;3.57;;
9178;SDS011;71287;48.414;11.478;2023-12-28T02:19:17;4.57;;;4.00;;
9178;SDS011;71287;48.414;11.478;2023-12-28T02:21:51;4.03;;;3.47;;
9178;SDS011;71287;48.414;11.478;2023-12-28T02:24:20;4.60;;;3.90;;
9178;SDS011;71287;48.414;11.478;2023-12-28T02:26:48;4.30;;;3.70;;
9178;SDS011;71287;48.414;11.478;2023-12-28T02:29:15;4.83;;;3.73;;
9178;SDS011;71287;48.414;11.478;2023-12-28T02:31:43;4.33;;;3.73;;
9178;SDS011;71287;48.414;11.478;2023-12-28T02:34:16;5.07;;;3.47;;
9178;SDS011;71287;48.414;11.478;2023-12-28T02:36:50;4.43;;;4.03;;
9178;SDS011;71287;48.414;11.478;2023-12-28T02:39:18;4.47;;;3.83;;
9178;SDS011;71287;48.414;11.478;2023-12-28T02:41:49;5.03;;;4.00;;
9178;SDS011;71287;48.414;11.478;2023-12-28T02:44:17;3.43;;;3.13;;
9178;SDS011;71287;48.414;11.478;2023-12-28T02:46:45;5.57;;;3.27;;
9178;SDS011;71287;48.414;11.478;2023-12-28T02:49:11;2.43;;;2.23;;
9178;SDS011;71287;48.414;11.478;2023-12-28T02:51:40;4.63;;;2.43;;
9178;SDS011;71287;48.414;11.478;2023-12-28T02:54:07;3.07;;;2.07;;
9178;SDS011;71287;48.414;11.478;2023-12-28T02:56:34;4.13;;;3.27;;
9178;SDS011;71287;48.414;11.478;2023-12-28T02:59:02;5.03;;;3.63;;
9178;SDS011;71287;48.414;11.478;2023-12-28T03:01:29;3.73;;;3.30;;
9178;SDS011;71287;48.414;11.478;2023-12-28T03:03:56;4.63;;;3.47;;
9178;SDS011;71287;48.414;11.478;2023-12-28T03:06:23;4.23;;;3.47;;
9178;SDS011;71287;48.414;11.478;2023-12-28T03:08:49;3.20;;;2.40;;
9178;SDS011;71287;48.414;11.478;2023-12-28T03:11:15;2.83;;;2.63;;
9178;SDS011;71287;48.414;11.478;2023-12-28T03:13:42;4.53;;;2.60;;
9178;SDS011;71287;48.414;11.478;2023-12-28T03:16:10;2.33;;;2.13;;
9178;SDS011;71287;48.414;11.478;2023-12-28T03:18:39;2.37;;;2.13;;
9178;SDS011;71287;48.414;11.478;2023-12-28T03:21:05;3.33;;;3.03;;
9178;SDS011;71287;48.414;11.478;2023-12-28T03:23:32;4.07;;;3.50;;
9178;SDS011;71287;48.414;11.478;2023-12-28T03:26:00;4.13;;;3.37;;
9178;SDS011;71287;48.414;11.478;2023-12-28T03:28:27;3.90;;;2.97;;
9178;SDS011;71287;48.414;11.478;2023-12-28T03:30:54;3.97;;;2.87;;
9178;SDS011;71287;48.414;11.478;2023-12-28T03:33:22;3.27;;;2.50;;
9178;SDS011;71287;48.414;11.478;2023-12-28T03:35:49;2.73;;;2.40;;
9178;SDS011;71287;48.414;11.478;2023-12-28T03:38:16;2.33;;;2.10;;
9178;SDS011;71287;48.414;11.478;2023-12-28T03:40:43;4.00;;;3.37;;
9178;SDS011;71287;48.414;11.478;2023-12-28T03:43:12;4.67;;;3.47;;
9178;SDS011;71287;48.414;11.478;2023-12-28T03:45:39;5.07;;;3.30;;
9178;SDS011;71287;48.414;11.478;2023-12-28T03:48:06;3.40;;;3.00;;
9178;SDS011;71287;48.414;11.478;2023-12-28T03:50:35;4.87;;;3.10;;
9178;SDS011;71287;48.414;11.478;2023-12-28T03:53:02;3.53;;;2.60;;
9178;SDS011;71287;48.414;11.478;2023-12-28T03:55:29;4.57;;;2.97;;
9178;SDS011;71287;48.414;11.478;2023-12-28T03:57:56;4.57;;;3.97;;
9178;SDS011;71287;48.414;11.478;2023-12-28T04:00:23;4.70;;;3.40;;
9178;SDS011;71287;48.414;11.478;2023-12-28T04:02:50;3.57;;;3.27;;
9178;SDS011;71287;48.414;11.478;2023-12-28T04:05:17;4.27;;;2.90;;
9178;SDS011;71287;48.414;11.478;2023-12-28T04:07:45;4.40;;;2.37;;
9178;SDS011;71287;48.414;11.478;2023-12-28T04:10:12;2.80;;;2.47;;
9178;SDS011;71287;48.414;11.478;2023-12-28T04:12:39;3.13;;;2.73;;
9178;SDS011;71287;48.414;11.478;2023-12-28T04:15:06;2.87;;;2.67;;
9178;SDS011;71287;48.414;11.478;2023-12-28T04:17:33;2.73;;;2.00;;
9178;SDS011;71287;48.414;11.478;2023-12-28T04:20:00;3.83;;;3.23;;
9178;SDS011;71287;48.414;11.478;2023-12-28T04:22:27;4.03;;;3.37;;
9178;SDS011;71287;48.414;11.478;2023-12-28T04:24:55;4.27;;;3.50;;
9178;SDS011;71287;48.414;11.478;2023-12-28T04:27:22;6.07;;;3.83;;
9178;SDS011;71287;48.414;11.478;2023-12-28T04:29:49;6.00;;;3.70;;
9178;SDS011;71287;48.414;11.478;2023-12-28T04:32:16;3.53;;;2.93;;
9178;SDS011;71287;48.414;11.478;2023-12-28T04:34:42;3.23;;;2.93;;
9178;SDS011;71287;48.414;11.478;2023-12-28T04:37:09;4.37;;;3.23;;
9178;SDS011;71287;48.414;11.478;2023-12-28T04:39:37;3.53;;;2.60;;
9178;SDS011;71287;48.414;11.478;2023-12-28T04:42:05;2.40;;;2.20;;
9178;SDS011;71287;48.414;11.478;2023-12-28T04:44:32;2.60;;;1.90;;
9178;SDS011;71287;48.414;11.478;2023-12-28T04:47:03;1.90;;;1.63;;
9178;SDS011;71287;48.414;11.478;2023-12-28T04:49:30;1.80;;;1.60;;
9178;SDS011;71287;48.414;11.478;2023-12-28T04:51:58;1.77;;;1.43;;
9178;SDS011;71287;48.414;11.478;2023-12-28T04:54:25;1.70;;;1.43;;
9178;SDS011;71287;48.414;11.478;2023-12-28T04:56:52;2.97;;;1.43;;
9178;SDS011;71287;48.414;11.478;2023-12-28T04:59:20;1.67;;;1.20;;
9178;SDS011;71287;48.414;11.478;2023-12-28T05:01:47;2.00;;;1.33;;
9178;SDS011;71287;48.414;11.478;2023-12-28T05:04:15;1.47;;;1.20;;
9178;SDS011;71287;48.414;11.478;2023-12-28T05:06:42;1.20;;;1.00;;
9178;SDS011;71287;48.414;11.478;2023-12-28T05:09:10;1.30;;;1.07;;
9178;SDS011;71287;48.414;11.478;2023-12-28T05:11:37;2.07;;;1.20;;
9178;SDS011;71287;48.414;11.478;2023-12-28T05:14:04;1.17;;;0.93;;
9178;SDS011;71287;48.414;11.478;2023-12-28T05:16:40;1.40;;;1.10;;
9178;SDS011;71287;48.414;11.478;2023-12-28T05:19:07;1.13;;;0.87;;
9178;SDS011;71287;48.414;11.478;2023-12-28T05:21:35;0.87;;;0.60;;
9178;SDS011;71287;48.414;11.478;2023-12-28T05:24:02;2.37;;;0.70;;
9178;SDS011;71287;48.414;11.478;2023-12-28T05:26:29;1.60;;;1.00;;
9178;SDS011;71287;48.414;11.478;2023-12-28T05:28:57;1.40;;;1.00;;
9178;SDS011;71287;48.414;11.478;2023-12-28T05:31:25;1.13;;;1.00;;
9178;SDS011;71287;48.414;11.478;2023-12-28T05:33:53;1.13;;;0.80;;
9178;SDS011;71287;48.414;11.478;2023-12-28T05:36:20;1.20;;;0.80;;
9178;SDS011;71287;48.414;11.478;2023-12-28T05:38:47;2.00;;;1.23;;
9178;SDS011;71287;48.414;11.478;2023-12-28T05:41:14;1.67;;;1.57;;
9178;SDS011;71287;48.414;11.478;2023-12-28T05:43:41;2.17;;;1.70;;
9178;SDS011;71287;48.414;11.478;2023-12-28T05:46:08;1.97;;;1.53;;
9178;SDS011;71287;48.414;11.478;2023-12-28T05:48:34;2.83;;;1.63;;
9178;SDS011;71287;48.414;11.478;2023-12-28T05:51:03;1.60;;;0.90;;
9178;SDS011;71287;48.414;11.478;2023-12-28T05:53:30;4.00;;;2.93;;
9178;SDS011;71287;48.414;11.478;2023-12-28T05:55:57;2.50;;;2.30;;
9178;SDS011;71287;48.414;11.478;2023-12-28T05:58:28;3.83;;;2.47;;
9178;SDS011;71287;48.414;11.478;2023-12-28T06:00:55;2.77;;;2.13;;
9178;SDS011;71287;48.414;11.478;2023-12-28T06:03:21;2.03;;;1.80;;
9178;SDS011;71287;48.414;11.478;2023-12-28T06:05:53;2.40;;;1.63;;
9178;SDS011;71287;48.414;11.478;2023-12-28T06:08:21;1.37;;;1.27;;
9178;SDS011;71287;48.414;11.478;2023-12-28T06:10:49;3.80;;;1.70;;
9178;SDS011;71287;48.414;11.478;2023-12-28T06:13:16;1.80;;;1.57;;
9178;SDS011;71287;48.414;11.478;2023-12-28T06:15:42;1.50;;;1.40;;
9178;SDS011;71287;48.414;11.478;2023-12-28T06:18:09;2.03;;;1.63;;
9178;SDS011;71287;48.414;11.478;2023-12-28T06:20:37;1.80;;;1.70;;
9178;SDS011;71287;48.414;11.478;2023-12-28T06:23:04;2.20;;;1.70;;
9178;SDS011;71287;48.414;11.478;2023-12-28T06:25:34;2.47;;;2.03;;
9178;SDS011;71287;48.414;11.478;2023-12-28T06:28:01;2.43;;;2.20;;
9178;SDS011;71287;48.414;11.478;2023-12-28T06:30:28;3.80;;;2.27;;
9178;SDS011;71287;48.414;11.478;2023-12-28T06:32:54;3.43;;;2.20;;
9178;SDS011;71287;48.414;11.478;2023-12-28T06:35:21;3.07;;;2.57;;
9178;SDS011;71287;48.414;11.478;2023-12-28T06:37:48;2.63;;;2.30;;
9178;SDS011;71287;48.414;11.478;2023-12-28T06:40:15;3.93;;;2.27;;
9178;SDS011;71287;48.414;11.478;2023-12-28T06:42:43;4.40;;;2.40;;
9178;SDS011;71287;48.414;11.478;2023-12-28T06:45:10;2.70;;;2.20;;
9178;SDS011;71287;48.414;11.478;2023-12-28T06:47:37;2.40;;;2.10;;
9178;SDS011;71287;48.414;11.478;2023-12-28T06:50:04;2.57;;;2.27;;
9178;SDS011;71287;48.414;11.478;2023-12-28T06:52:31;4.47;;;2.40;;
9178;SDS011;71287;48.414;11.478;2023-12-28T06:54:58;3.20;;;2.60;;
9178;SDS011;71287;48.414;11.478;2023-12-28T06:57:25;3.30;;;2.27;;
9178;SDS011;71287;48.414;11.478;2023-12-28T06:59:54;4.63;;;2.40;;
9178;SDS011;71287;48.414;11.478;2023-12-28T07:02:21;4.57;;;2.63;;
9178;SDS011;71287;48.414;11.478;2023-12-28T07:04:47;2.80;;;2.47;;
9178;SDS011;71287;48.414;11.478;2023-12-28T07:07:14;2.40;;;2.20;;
9178;SDS011;71287;48.414;11.478;2023-12-28T07:09:41;2.60;;;2.40;;
9178;SDS011;71287;48.414;11.478;2023-12-28T07:12:08;4.83;;;2.87;;
9178;SDS011;71287;48.414;11.478;2023-12-28T07:14:35;4.00;;;2.30;;
9178;SDS011;71287;48.414;11.478;2023-12-28T07:17:03;3.20;;;2.43;;
9178;SDS011;71287;48.414;11.478;2023-12-28T07:19:30;2.67;;;2.17;;
9178;SDS011;71287;48.414;11.478;2023-12-28T07:21:57;4.17;;;2.77;;
9178;SDS011;71287;48.414;11.478;2023-12-28T07:24:24;2.67;;;2.30;;
9178;SDS011;71287;48.414;11.478;2023-12-28T07:26:51;2.57;;;2.30;;
9178;SDS011;71287;48.414;11.478;2023-12-28T07:29:17;2.27;;;2.07;;
9178;SDS011;71287;48.414;11.478;2023-12-28T07:31:44;2.07;;;1.57;;
9178;SDS011;71287;48.414;11.478;2023-12-28T07:34:12;1.97;;;1.40;;
9178;SDS011;71287;48.414;11.478;2023-12-28T07:36:39;1.47;;;1.37;;
9178;SDS011;71287;48.414;11.478;2023-12-28T07:39:08;3.50;;;2.30;;
9178;SDS011;71287;48.414;11.478;2023-12-28T07:41:35;2.40;;;2.03;;
9178;SDS011;71287;48.414;11.478;2023-12-28T07:44:02;2.87;;;2.03;;
9178;SDS011;71287;48.414;11.478;2023-12-28T07:46:29;1.93;;;1.70;;
9178;SDS011;71287;48.414;11.478;2023-12-28T07:48:56;2.27;;;1.83;;
9178;SDS011;71287;48.414;11.478;2023-12-28T07:51:25;3.00;;;1.80;;
9178;SDS011;71287;48.414;11.478;2023-12-28T07:53:51;2.87;;;1.57;;
9178;SDS011;71287;48.414;11.478;2023-12-28T07:56:18;3.50;;;2.13;;
9178;SDS011;71287;48.414;11.478;2023-12-28T07:58:45;2.17;;;1.80;;
9178;SDS011;71287;48.414;11.478;2023-12-28T08:01:12;2.13;;;1.90;;
9178;SDS011;71287;48.414;11.478;2023-12-28T08:03:39;1.93;;;1.73;;
9178;SDS011;71287;48.414;11.478;2023-12-28T08:06:05;2.87;;;2.13;;
9178;SDS011;71287;48.414;11.478;2023-12-28T08:08:34;2.23;;;1.60;;
9178;SDS011;71287;48.414;11.478;2023-12-28T08:11:02;3.47;;;1.67;;
9178;SDS011;71287;48.414;11.478;2023-12-28T08:13:29;2.90;;;2.13;;
9178;SDS011;71287;48.414;11.478;2023-12-28T08:15:56;4.97;;;1.73;;
9178;SDS011;71287;48.414;11.478;2023-12-28T08:18:23;4.70;;;2.00;;
9178;SDS011;71287;48.414;11.478;2023-12-28T08:20:49;3.13;;;2.07;;
9178;SDS011;71287;48.414;11.478;2023-12-28T08:23:17;3.83;;;1.60;;
9178;SDS011;71287;48.414;11.478;2023-12-28T08:25:46;2.13;;;2.00;;
9178;SDS011;71287;48.414;11.478;2023-12-28T08:28:13;4.30;;;2.03;;
9178;SDS011;71287;48.414;11.478;2023-12-28T08:30:40;4.50;;;1.80;;
9178;SDS011;71287;48.414;11.478;2023-12-28T08:33:06;2.03;;;1.63;;
9178;SDS011;71287;48.414;11.478;2023-12-28T08:35:33;2.63;;;1.90;;
9178;SDS011;71287;48.414;11.478;2023-12-28T08:38:00;3.30;;;2.10;;
9178;SDS011;71287;48.414;11.478;2023-12-28T08:40:27;4.70;;;2.10;;
9178;SDS011;71287;48.414;11.478;2023-12-28T08:42:55;1.93;;;1.63;;
9178;SDS011;71287;48.414;11.478;2023-12-28T08:45:22;1.93;;;1.83;;
9178;SDS011;71287;48.414;11.478;2023-12-28T08:47:49;2.40;;;1.63;;
9178;SDS011;71287;48.414;11.478;2023-12-28T08:50:15;2.33;;;1.60;;
9178;SDS011;71287;48.414;11.478;2023-12-28T08:52:42;1.87;;;1.30;;
9178;SDS011;71287;48.414;11.478;2023-12-28T08:55:09;1.90;;;1.40;;
9178;SDS011;71287;48.414;11.478;2023-12-28T08:57:36;1.60;;;1.50;;
9178;SDS011;71287;48.414;11.478;2023-12-28T09:00:05;2.03;;;1.43;;
9178;SDS011;71287;48.414;11.478;2023-12-28T09:02:33;1.50;;;1.30;;
9178;SDS011;71287;48.414;11.478;2023-12-28T09:05:00;2.00;;;1.40;;
9178;SDS011;71287;48.414;11.478;2023-12-28T09:07:27;1.70;;;1.60;;
9178;SDS011;71287;48.414;11.478;2023-12-28T09:09:54;1.47;;;1.13;;
9178;SDS011;71287;48.414;11.478;2023-12-28T09:12:21;1.60;;;1.30;;
9178;SDS011;71287;48.414;11.478;2023-12-28T09:14:48;1.70;;;1.43;;
9178;SDS011;71287;48.414;11.478;2023-12-28T09:17:18;2.17;;;1.83;;
9178;SDS011;71287;48.414;11.478;2023-12-28T09:19:47;2.10;;;1.60;;
9178;SDS011;71287;48.414;11.478;2023-12-28T09:22:14;1.67;;;1.57;;
9178;SDS011;71287;48.414;11.478;2023-12-28T09:24:41;3.47;;;2.17;;
9178;SDS011;71287;48.414;11.478;2023-12-28T09:27:07;3.73;;;2.37;;
9178;SDS011;71287;48.414;11.478;2023-12-28T09:29:34;4.43;;;2.30;;
9178;SDS011;71287;48.414;11.478;2023-12-28T09:32:01;2.87;;;2.10;;
9178;SDS011;71287;48.414;11.478;2023-12-28T09:34:29;6.73;;;2.87;;
9178;SDS011;71287;48.414;11.478;2023-12-28T09:36:56;5.73;;;3.50;;
9178;SDS011;71287;48.414;11.478;2023-12-28T09:39:23;6.63;;;3.47;;
9178;SDS011;71287;48.414;11.478;2023-12-28T09:41:53;3.50;;;2.50;;
9178;SDS011;71287;48.414;11.478;2023-12-28T09:44:22;4.53;;;2.30;;
9178;SDS011;71287;48.414;11.478;2023-12-28T09:46:51;4.93;;;1.90;;
9178;SDS011;71287;48.414;11.478;2023-12-28T09:49:20;2.33;;;1.90;;
9178;SDS011;71287;48.414;11.478;2023-12-28T09:51:49;3.30;;;1.90;;
9178;SDS011;71287;48.414;11.478;2023-12-28T09:54:16;3.50;;;1.90;;
9178;SDS011;71287;48.414;11.478;2023-12-28T09:56:43;3.00;;;1.90;;
9178;SDS011;71287;48.414;11.478;2023-12-28T09:59:11;1.87;;;1.10;;
9178;SDS011;71287;48.414;11.478;2023-12-28T10:01:39;1.77;;;1.20;;
9178;SDS011;71287;48.414;11.478;2023-12-28T10:04:06;2.10;;;0.80;;
9178;SDS011;71287;48.414;11.478;2023-12-28T10:06:34;2.00;;;0.90;;
9178;SDS011;71287;48.414;11.478;2023-12-28T10:09:02;1.70;;;0.80;;
9178;SDS011;71287;48.414;11.478;2023-12-28T10:11:29;0.70;;;0.60;;
9178;SDS011;71287;48.414;11.478;2023-12-28T10:13:56;0.80;;;0.80;;
9178;SDS011;71287;48.414;11.478;2023-12-28T10:16:24;0.70;;;0.60;;
9178;SDS011;71287;48.414;11.478;2023-12-28T10:18:52;1.17;;;0.63;;
9178;SDS011;71287;48.414;11.478;2023-12-28T10:21:18;1.23;;;0.67;;
9178;SDS011;71287;48.414;11.478;2023-12-28T10:23:45;0.67;;;0.67;;
9178;SDS011;71287;48.414;11.478;2023-12-28T10:26:13;1.17;;;0.70;;
9178;SDS011;71287;48.414;11.478;2023-12-28T10:28:40;1.10;;;0.73;;
9178;SDS011;71287;48.414;11.478;2023-12-28T10:31:07;0.70;;;0.60;;
9178;SDS011;71287;48.414;11.478;2023-12-28T10:33:34;1.90;;;0.87;;
9178;SDS011;71287;48.414;11.478;2023-12-28T10:36:02;0.70;;;0.60;;
9178;SDS011;71287;48.414;11.478;2023-12-28T10:38:32;2.30;;;0.80;;
9178;SDS011;71287;48.414;11.478;2023-12-28T10:41:02;1.13;;;0.70;;
9178;SDS011;71287;48.414;11.478;2023-12-28T10:43:31;0.97;;;0.60;;
9178;SDS011;71287;48.414;11.478;2023-12-28T10:46:06;1.47;;;0.80;;
9178;SDS011;71287;48.414;11.478;2023-12-28T10:48:36;2.50;;;0.87;;
9178;SDS011;71287;48.414;11.478;2023-12-28T10:51:05;1.33;;;0.80;;
9178;SDS011;71287;48.414;11.478;2023-12-28T10:53:37;1.17;;;0.83;;
9178;SDS011;71287;48.414;11.478;2023-12-28T10:56:14;1.00;;;0.90;;
9178;SDS011;71287;48.414;11.478;2023-12-28T10:58:58;1.13;;;0.90;;
9178;SDS011;71287;48.414;11.478;2023-12-28T11:01:36;1.67;;;0.70;;
9178;SDS011;71287;48.414;11.478;2023-12-28T11:04:06;1.13;;;0.70;;
9178;SDS011;71287;48.414;11.478;2023-12-28T11:06:38;1.57;;;0.70;;
9178;SDS011;71287;48.414;11.478;2023-12-28T11:09:08;0.77;;;0.67;;
9178;SDS011;71287;48.414;11.478;2023-12-28T11:11:37;0.60;;;0.60;;
9178;SDS011;71287;48.414;11.478;2023-12-28T11:14:06;0.57;;;0.57;;
9178;SDS011;71287;48.414;11.478;2023-12-28T11:16:34;0.87;;;0.67;;
9178;SDS011;71287;48.414;11.478;2023-12-28T11:19:03;0.80;;;0.70;;
9178;SDS011;71287;48.414;11.478;2023-12-28T11:21:30;0.70;;;0.60;;
9178;SDS011;71287;48.414;11.478;2023-12-28T11:23:59;0.70;;;0.70;;
9178;SDS011;71287;48.414;11.478;2023-12-28T11:26:27;1.10;;;0.63;;
9178;SDS011;71287;48.414;11.478;2023-12-28T11:28:59;0.73;;;0.70;;
9178;SDS011;71287;48.414;11.478;2023-12-28T11:31:28;1.37;;;0.83;;
9178;SDS011;71287;48.414;11.478;2023-12-28T11:33:58;1.10;;;1.00;;
9178;SDS011;71287;48.414;11.478;2023-12-28T11:36:26;2.57;;;1.50;;
9178;SDS011;71287;48.414;11.478;2023-12-28T11:39:01;1.30;;;1.13;;
9178;SDS011;71287;48.414;11.478;2023-12-28T11:41:30;1.30;;;1.10;;
9178;SDS011;71287;48.414;11.478;2023-12-28T11:44:01;1.30;;;1.20;;
9178;SDS011;71287;48.414;11.478;2023-12-28T11:46:31;1.37;;;1.03;;
9178;SDS011;71287;48.414;11.478;2023-12-28T11:49:04;1.73;;;1.03;;
9178;SDS011;71287;48.414;11.478;2023-12-28T11:51:32;2.23;;;1.60;;
9178;SDS011;71287;48.414;11.478;2023-12-28T11:54:00;1.90;;;1.47;;
9178;SDS011;71287;48.414;11.478;2023-12-28T11:56:28;1.37;;;1.27;;
9178;SDS011;71287;48.414;11.478;2023-12-28T11:58:55;2.00;;;1.13;;
9178;SDS011;71287;48.414;11.478;2023-12-28T12:01:23;1.27;;;1.00;;
9178;SDS011;71287;48.414;11.478;2023-12-28T12:03:52;1.37;;;1.20;;
9178;SDS011;71287;48.414;11.478;2023-12-28T12:06:19;1.20;;;1.07;;
9178;SDS011;71287;48.414;11.478;2023-12-28T12:08:46;3.43;;;1.30;;
9178;SDS011;71287;48.414;11.478;2023-12-28T12:11:14;1.27;;;1.17;;
9178;SDS011;71287;48.414;11.478;2023-12-28T12:13:43;2.50;;;1.37;;
9178;SDS011;71287;48.414;11.478;2023-12-28T12:16:10;4.03;;;1.70;;
9178;SDS011;71287;48.414;11.478;2023-12-28T12:18:40;1.77;;;1.40;;
9178;SDS011;71287;48.414;11.478;2023-12-28T12:21:09;1.40;;;1.20;;
9178;SDS011;71287;48.414;11.478;2023-12-28T12:23:36;1.10;;;1.00;;
9178;SDS011;71287;48.414;11.478;2023-12-28T12:26:04;1.57;;;1.47;;
9178;SDS011;71287;48.414;11.478;2023-12-28T12:28:31;1.27;;;1.17;;
9178;SDS011;71287;48.414;11.478;2023-12-28T12:30:58;2.60;;;1.93;;
9178;SDS011;71287;48.414;11.478;2023-12-28T12:33:26;3.17;;;2.53;;
9178;SDS011;71287;48.414;11.478;2023-12-28T12:35:53;3.90;;;3.00;;
9178;SDS011;71287;48.414;11.478;2023-12-28T12:38:22;2.60;;;2.40;;
9178;SDS011;71287;48.414;11.478;2023-12-28T12:40:50;2.53;;;1.90;;
9178;SDS011;71287;48.414;11.478;2023-12-28T12:43:17;2.17;;;1.80;;
9178;SDS011;71287;48.414;11.478;2023-12-28T12:45:44;1.60;;;1.07;;
9178;SDS011;71287;48.414;11.478;2023-12-28T12:48:11;1.53;;;1.20;;
9178;SDS011;71287;48.414;11.478;2023-12-28T12:50:38;1.03;;;0.87;;
9178;SDS011;71287;48.414;11.478;2023-12-28T12:53:05;2.03;;;1.27;;
9178;SDS011;71287;48.414;11.478;2023-12-28T12:55:33;1.20;;;1.10;;
9178;SDS011;71287;48.414;11.478;2023-12-28T12:58:00;1.63;;;1.10;;
9178;SDS011;71287;48.414;11.478;2023-12-28T13:00:27;1.30;;;1.10;;
9178;SDS011;71287;48.414;11.478;2023-12-28T13:02:53;1.37;;;1.27;;
9178;SDS011;71287;48.414;11.478;2023-12-28T13:05:21;1.13;;;1.03;;
9178;SDS011;71287;48.414;11.478;2023-12-28T13:07:49;1.13;;;1.00;;
9178;SDS011;71287;48.414;11.478;2023-12-28T13:10:16;1.60;;;1.20;;
9178;SDS011;71287;48.414;11.478;2023-12-28T13:12:44;1.13;;;0.90;;
9178;SDS011;71287;48.414;11.478;2023-12-28T13:15:11;1.57;;;1.10;;
9178;SDS011;71287;48.414;11.478;2023-12-28T13:17:38;2.00;;;1.43;;
9178;SDS011;71287;48.414;11.478;2023-12-28T13:20:05;1.50;;;1.10;;
9178;SDS011;71287;48.414;11.478;2023-12-28T13:22:33;2.17;;;1.20;;
9178;SDS011;71287;48.414;11.478;2023-12-28T13:24:59;1.37;;;1.10;;
9178;SDS011;71287;48.414;11.478;2023-12-28T13:27:27;0.97;;;0.93;;
9178;SDS011;71287;48.414;11.478;2023-12-28T13:29:55;1.53;;;0.70;;
9178;SDS011;71287;48.414;11.478;2023-12-28T13:32:22;1.33;;;1.07;;
9178;SDS011;71287;48.414;11.478;2023-12-28T13:34:49;1.30;;;0.87;;
9178;SDS011;71287;48.414;11.478;2023-12-28T13:37:16;0.87;;;0.73;;
9178;SDS011;71287;48.414;11.478;2023-12-28T13:39:43;1.20;;;1.10;;
9178;SDS011;71287;48.414;11.478;2023-12-28T13:42:09;1.03;;;0.83;;
9178;SDS011;71287;48.414;11.478;2023-12-28T13:44:36;1.03;;;0.93;;
9178;SDS011;71287;48.414;11.478;2023-12-28T13:47:04;1.37;;;1.00;;
9178;SDS011;71287;48.414;11.478;2023-12-28T13:49:32;2.53;;;1.30;;
9178;SDS011;71287;48.414;11.478;2023-12-28T13:51:58;1.97;;;0.87;;
9178;SDS011;71287;48.414;11.478;2023-12-28T13:54:25;2.50;;;0.87;;
9178;SDS011;71287;48.414;11.478;2023-12-28T13:56:52;1.47;;;0.70;;
9178;SDS011;71287;48.414;11.478;2023-12-28T13:59:22;2.30;;;1.03;;
9178;SDS011;71287;48.414;11.478;2023-12-28T14:01:49;1.53;;;0.70;;
9178;SDS011;71287;48.414;11.478;2023-12-28T14:04:17;1.43;;;0.87;;
9178;SDS011;71287;48.414;11.478;2023-12-28T14:06:44;0.90;;;0.87;;
9178;SDS011;71287;48.414;11.478;2023-12-28T14:09:11;1.10;;;1.00;;
9178;SDS011;71287;48.414;11.478;2023-12-28T14:11:39;2.40;;;1.00;;
9178;SDS011;71287;48.414;11.478;2023-12-28T14:14:06;1.03;;;0.90;;
9178;SDS011;71287;48.414;11.478;2023-12-28T14:16:32;0.80;;;0.80;;
9178;SDS011;71287;48.414;11.478;2023-12-28T14:18:59;1.40;;;0.90;;
9178;SDS011;71287;48.414;11.478;2023-12-28T14:21:28;1.00;;;0.80;;
9178;SDS011;71287;48.414;11.478;2023-12-28T14:23:55;1.40;;;1.20;;
9178;SDS011;71287;48.414;11.478;2023-12-28T14:26:22;1.20;;;1.10;;
9178;SDS011;71287;48.414;11.478;2023-12-28T14:28:50;1.80;;;1.23;;
9178;SDS011;71287;48.414;11.478;2023-12-28T14:31:17;2.57;;;1.20;;
9178;SDS011;71287;48.414;11.478;2023-12-28T14:33:44;2.83;;;1.40;;
9178;SDS011;71287;48.414;11.478;2023-12-28T14:36:13;1.43;;;1.20;;
9178;SDS011;71287;48.414;11.478;2023-12-28T14:38:47;1.30;;;1.10;;
9178;SDS011;71287;48.414;11.478;2023-12-28T14:41:13;1.87;;;1.40;;
9178;SDS011;71287;48.414;11.478;2023-12-28T14:43:40;1.53;;;1.30;;
9178;SDS011;71287;48.414;11.478;2023-12-28T14:46:07;1.50;;;1.23;;
9178;SDS011;71287;48.414;11.478;2023-12-28T14:48:34;2.20;;;1.30;;
9178;SDS011;71287;48.414;11.478;2023-12-28T14:51:00;1.03;;;0.90;;